Time;durP1;ratioP1;P1;durP2;ratioP2;P2;SDS_P1;SDS_P2;PMS_P1;PMS_P2;Temp;Humidity;BMP_temperature;BMP_pressure;BME280_temperature;BME280_humidity;BME280_pressure;Samples;Min_cycle;Max_cycle;Signal;HPM_P1;HPM_P2
2022/01/20 00:02:36;;;;;;;17.80;9.10;;;;;;;0.57;77.88;98446.32;220450;1271;25259;-72
2022/01/20 00:30:35;;;;;;;13.40;8.10;;;;;;;0.54;78.39;98421.70;220729;1271;22591;-70
2022/01/20 00:40:56;;;;;;;16.00;8.70;;;;;;;0.59;78.48;98421.58;220586;1271;22558;-71
2022/01/20 00:46:23;;;;;;;;;;;;;;;;;;;;;
2022/01/20 00:51:46;;;;;;;13.00;8.10;;;;;;;0.61;78.47;98396.20;220630;1271;22549;-73
2022/01/20 00:57:24;;;;;;;14.40;7.90;;;;;;;0.62;78.43;98378.23;220797;1271;22554;-71
2022/01/20 01:03:07;;;;;;;16.50;9.50;;;;;;;0.62;78.82;98375.48;220700;1271;22546;-72
2022/01/20 01:08:29;;;;;;;17.10;8.60;;;;;;;0.64;78.81;98374.04;220709;1271;22531;-72
2022/01/20 01:13:55;;;;;;;16.20;8.70;;;;;;;0.68;78.56;98372.86;220828;1271;22937;-71
2022/01/20 01:24:41;;;;;;;14.90;7.90;;;;;;;0.74;78.86;98347.72;220340;1271;22611;-71
2022/01/20 01:30:20;;;;;;;;;;;;;;;;;;;;;
2022/01/20 01:35:41;;;;;;;13.70;6.80;;;;;;;0.81;78.68;98326.75;220335;1271;24342;-72
2022/01/20 01:40:47;;;;;;;13.30;7.60;;;;;;;0.84;78.55;98322.23;220699;1271;22537;-72
2022/01/20 01:45:50;;;;;;;13.00;7.70;;;;;;;0.88;78.35;98315.95;220804;1271;25519;-72
2022/01/20 01:51:02;;;;;;;14.50;8.10;;;;;;;0.89;78.40;98295.92;220515;1271;22734;-71
2022/01/20 01:56:31;;;;;;;;;;;;;;;;;;;;;
2022/01/20 02:01:37;;;;;;;17.10;7.20;;;;;;;0.92;78.19;98291.08;220214;1271;25360;-72
2022/01/20 02:19:23;;;;;;;9.90;6.10;;;;;;;1.05;77.79;98270.36;220569;1270;22604;-72
2022/01/20 02:24:41;;;;;;;9.30;5.60;;;;;;;1.10;77.53;98264.64;220815;1270;25376;-71
2022/01/20 02:30:19;;;;;;;10.20;6.10;;;;;;;1.14;77.45;98255.73;220951;1271;22660;-72
2022/01/20 02:36:09;;;;;;;6.60;4.20;;;;;;;1.21;77.35;98247.92;220790;1270;22626;-72
2022/01/20 02:46:55;;;;;;;7.50;4.30;;;;;;;1.37;76.95;98242.35;220630;1270;22585;-71
2022/01/20 02:52:07;;;;;;;6.70;3.50;;;;;;;1.40;77.10;98238.08;220466;1271;24347;-71
2022/01/20 02:57:29;;;;;;;;;;;;;;;;;;;;;
2022/01/20 03:02:35;;;;;;;7.40;4.40;;;;;;;1.44;77.33;98237.55;220652;1271;24235;-72
2022/01/20 03:07:38;;;;;;;8.70;4.80;;;;;;;1.42;77.36;98234.15;220913;1271;22612;-71
2022/01/20 03:13:03;;;;;;;6.80;4.30;;;;;;;1.41;77.52;98226.42;220239;1271;24244;-72
2022/01/20 03:18:06;;;;;;;7.50;4.20;;;;;;;1.41;77.70;98224.57;220860;1271;22688;-71
2022/01/20 03:23:21;;;;;;;5.70;4.20;;;;;;;1.35;78.21;98222.34;220823;1271;22538;-71
2022/01/20 03:28:27;;;;;;;6.90;3.70;;;;;;;1.31;78.81;98223.70;220508;1271;24277;-70
2022/01/20 03:40:14;;;;;;;6.80;4.60;;;;;;;1.13;79.68;98213.03;220463;1271;22583;-71
2022/01/20 03:45:36;;;;;;;5.90;4.00;;;;;;;0.99;80.23;98203.20;220623;1271;25383;-71
2022/01/20 03:51:00;;;;;;;7.00;4.30;;;;;;;0.94;81.05;98198.06;220734;1271;22551;-70
2022/01/20 03:56:06;;;;;;;7.30;4.20;;;;;;;0.91;81.18;98194.12;220924;1271;25450;-72
2022/01/20 04:01:31;;;;;;;7.10;4.90;;;;;;;0.87;81.76;98191.40;220768;1271;22598;-72
2022/01/20 04:07:09;;;;;;;;;;;;;;;;;;;;;
2022/01/20 04:12:26;;;;;;;9.20;5.10;;;;;;;0.81;82.47;98183.67;220737;1271;22579;-72
2022/01/20 04:17:43;;;;;;;7.60;5.10;;;;;;;0.72;83.43;98172.59;220563;1271;22553;-71
2022/01/20 04:23:23;;;;;;;9.00;5.30;;;;;;;0.66;83.82;98162.48;220092;1271;22563;-71
2022/01/20 04:28:28;;;;;;;9.60;5.50;;;;;;;0.67;84.03;98164.88;220272;1271;24441;-72
2022/01/20 04:33:34;;;;;;;6.20;4.60;;;;;;;0.70;84.08;98157.48;220753;1271;24253;-72
2022/01/20 04:38:46;;;;;;;8.40;5.40;;;;;;;0.75;84.35;98157.89;220674;1271;24331;-71
2022/01/20 04:43:49;;;;;;;8.10;5.00;;;;;;;0.80;84.08;98146.73;220328;1271;24387;-72
2022/01/20 04:59:54;;;;;;;6.80;4.50;;;;;;;1.03;83.37;98141.29;220180;1271;22597;-71
2022/01/20 05:05:33;;;;;;;5.40;4.20;;;;;;;1.10;83.03;98143.17;220440;1271;22650;-71
2022/01/20 05:11:04;;;;;;;5.30;3.70;;;;;;;1.18;82.75;98145.19;220766;1269;25402;-72
2022/01/20 05:16:23;;;;;;;5.90;3.80;;;;;;;1.27;82.35;98144.09;220687;1271;26177;-72
2022/01/20 05:21:38;;;;;;;5.90;3.60;;;;;;;1.32;82.26;98141.20;220613;1271;25178;-72
2022/01/20 05:27:05;;;;;;;;;;;;;;;;;;;;;
2022/01/20 05:32:08;;;;;;;6.10;3.70;;;;;;;1.44;81.92;98132.60;220260;1271;22536;-72
2022/01/20 05:37:11;;;;;;;6.30;3.80;;;;;;;1.48;81.64;98134.30;220450;1271;22635;-71
2022/01/20 05:42:13;;;;;;;6.00;4.20;;;;;;;1.53;81.63;98131.88;220568;1271;24480;-71
2022/01/20 05:47:48;;;;;;;5.40;3.80;;;;;;;1.57;81.46;98124.58;220727;1271;24437;-71
2022/01/20 05:53:10;;;;;;;6.10;3.80;;;;;;;1.57;81.13;98122.21;220730;1271;22801;-72
2022/01/20 05:58:29;;;;;;;6.50;4.00;;;;;;;1.57;81.14;98115.66;220068;1270;25426;-72
2022/01/20 06:03:37;;;;;;;5.40;3.30;;;;;;;1.58;80.99;98108.51;220391;1270;22611;-71
2022/01/20 06:09:00;;;;;;;4.40;3.10;;;;;;;1.62;81.01;98109.01;220730;1269;22559;-72
2022/01/20 06:14:20;;;;;;;4.30;3.20;;;;;;;1.66;81.06;98104.00;220622;1270;22536;-72
2022/01/20 06:19:24;;;;;;;4.70;2.80;;;;;;;1.71;80.89;98115.94;220331;1270;24423;-72
2022/01/20 06:24:27;;;;;;;3.90;2.60;;;;;;;1.75;80.82;98111.80;220795;1269;22595;-72
2022/01/20 06:29:32;;;;;;;4.00;2.80;;;;;;;1.80;80.85;98110.85;220654;1270;24103;-71
2022/01/20 06:34:38;;;;;;;4.60;2.90;;;;;;;1.84;80.72;98111.27;220451;1271;24352;-71
2022/01/20 06:39:41;;;;;;;3.40;2.60;;;;;;;1.90;80.66;98108.38;220953;1271;22553;-72
2022/01/20 06:44:44;;;;;;;4.40;2.80;;;;;;;1.94;80.64;98104.94;220459;1271;25375;-71
2022/01/20 06:49:47;;;;;;;5.10;3.20;;;;;;;1.91;80.32;98122.24;220829;1271;22622;-71
2022/01/20 06:55:05;;;;;;;5.20;2.90;;;;;;;1.85;80.53;98157.40;221300;1270;25621;-71
2022/01/20 07:00:15;;;;;;;4.90;2.90;;;;;;;1.70;80.72;98171.79;220933;1271;25432;-71
2022/01/20 07:05:22;;;;;;;5.00;2.80;;;;;;;1.47;81.44;98167.55;221044;1268;25338;-72
2022/01/20 07:10:34;;;;;;;6.10;2.60;;;;;;;1.24;81.81;98182.21;220898;1271;22919;-71
2022/01/20 07:16:05;;;;;;;4.80;2.00;;;;;;;1.02;82.06;98166.22;220846;1271;22631;-71
2022/01/20 07:21:08;;;;;;;4.90;2.20;;;;;;;0.88;82.31;98157.20;220747;1271;23895;-70
2022/01/20 07:26:21;;;;;;;5.50;3.10;;;;;;;0.78;82.81;98149.29;220515;1271;22567;-71
2022/01/20 07:31:41;;;;;;;6.20;3.60;;;;;;;0.73;83.09;98146.47;220783;1270;22758;-71
2022/01/20 07:37:12;;;;;;;7.50;3.90;;;;;;;0.65;83.43;98143.60;220798;1268;22574;-71
2022/01/20 07:42:15;;;;;;;7.20;4.10;;;;;;;0.56;83.60;98140.93;220400;1271;22720;-71
2022/01/20 07:47:53;;;;;;;7.10;3.40;;;;;;;0.51;83.96;98153.29;220672;1268;24259;-71
2022/01/20 07:53:21;;;;;;;5.90;2.40;;;;;;;0.48;84.23;98164.30;220973;1268;24448;-71
2022/01/20 07:59:06;;;;;;;4.90;2.10;;;;;;;0.44;84.28;98165.54;220965;1268;24236;-71
2022/01/20 08:04:12;;;;;;;3.90;2.10;;;;;;;0.39;84.30;98172.66;220980;1268;24093;-71
2022/01/20 08:09:23;;;;;;;7.00;2.20;;;;;;;0.38;84.58;98176.98;218976;1269;22945;-70
2022/01/20 08:15:09;;;;;;;;;;;;;;;;;;;;;
2022/01/20 08:20:47;;;;;;;7.90;3.00;;;;;;;0.52;85.04;98153.84;217373;1268;5357431;-71
2022/01/20 08:26:39;;;;;;;;;;;;;;;0.89;85.58;98150.04;221030;1271;22800;-71
2022/01/20 08:31:48;;;;;;;5.90;2.90;;;;;;;1.15;84.94;98131.69;221106;1268;23176;-72
2022/01/20 08:37:06;;;;;;;5.30;2.40;;;;;;;1.40;84.52;98120.73;221224;1268;22583;-71
2022/01/20 08:42:37;;;;;;;5.60;2.40;;;;;;;1.60;84.00;98108.68;221170;1268;22548;-71
2022/01/20 08:48:21;;;;;;;5.80;2.10;;;;;;;1.79;83.44;98091.46;219212;1268;22722;-72
2022/01/20 08:53:50;;;;;;;4.90;1.90;;;;;;;1.92;81.98;98071.20;221212;1268;22552;-72
2022/01/20 08:58:54;;;;;;;6.20;2.70;;;;;;;2.04;81.52;98067.36;221113;1268;23360;-72
2022/01/20 09:04:11;;;;;;;5.40;2.70;;;;;;;2.14;81.06;98064.66;221164;1268;25424;-71
2022/01/20 09:09:42;;;;;;;;;;;;;;;;;;;;;
2022/01/20 09:20:14;;;;;;;5.00;2.80;;;;;;;2.45;80.24;98049.64;221049;1268;25312;-72
2022/01/20 09:26:01;;;;;;;4.20;2.20;;;;;;;2.62;79.00;98047.38;220763;1269;22562;-72
2022/01/20 09:31:26;;;;;;;6.00;3.50;;;;;;;2.77;78.57;98041.77;220979;1268;22772;-72
2022/01/20 09:36:30;;;;;;;5.70;3.70;;;;;;;2.87;78.45;98026.96;221018;1268;22581;-73
2022/01/20 09:41:35;;;;;;;6.10;3.50;;;;;;;2.92;77.87;98023.40;221130;1268;25168;-72
2022/01/20 09:46:41;;;;;;;5.90;3.10;;;;;;;2.91;77.52;98024.39;220961;1268;24108;-72
2022/01/20 09:51:56;;;;;;;6.10;3.70;;;;;;;2.89;77.99;98015.23;220988;1268;25362;-72
2022/01/20 09:57:39;;;;;;;6.20;3.60;;;;;;;2.94;77.65;97998.11;221036;1268;24518;-72
2022/01/20 10:03:00;;;;;;;8.90;3.30;;;;;;;2.93;77.41;98000.33;221266;1269;22679;-72
2022/01/20 10:08:40;;;;;;;8.40;3.20;;;;;;;2.79;76.10;97992.02;221312;1269;22557;-72
2022/01/20 10:14:23;;;;;;;4.20;2.20;;;;;;;2.79;76.28;97992.36;221132;1268;24237;-72
2022/01/20 10:20:08;;;;;;;3.70;1.60;;;;;;;2.77;74.50;97980.30;221319;1268;26629;-72
2022/01/20 10:26:28;;;;;;;4.40;2.00;;;;;;;2.72;72.77;97977.52;221237;1268;22557;-72
2022/01/20 10:31:49;;;;;;;4.20;1.70;;;;;;;2.66;71.66;97988.48;221525;1271;24227;-71
2022/01/20 10:37:03;;;;;;;1.60;0.50;;;;;;;2.43;74.60;98115.27;221181;1268;24248;-72
2022/01/20 10:42:26;;;;;;;0.50;0.50;;;;;;;0.74;82.19;98148.15;221146;1270;22636;-72
2022/01/20 10:48:14;;;;;;;1.70;0.40;;;;;;;-0.39;84.26;98129.40;221204;1268;22541;-73
2022/01/20 10:53:36;;;;;;;2.90;0.60;;;;;;;-0.89;85.93;98119.09;221133;1268;24825;-72
2022/01/20 10:58:40;;;;;;;2.70;0.70;;;;;;;-1.10;86.11;98111.96;221132;1268;25432;-72
2022/01/20 11:04:20;;;;;;;3.80;1.40;;;;;;;-1.19;86.97;98101.40;220914;1268;25574;-72
2022/01/20 11:10:09;;;;;;;2.70;0.90;;;;;;;-1.12;87.35;98093.23;220935;1268;22564;-74
2022/01/20 11:15:47;;;;;;;;;;;;;;;;;;;;;
2022/01/20 11:21:43;;;;;;;4.50;0.90;;;;;;;-0.75;85.93;98090.95;221049;1268;22587;-74
2022/01/20 11:27:16;;;;;;;4.00;1.30;;;;;;;-0.64;85.63;98070.17;221060;1268;22563;-73
2022/01/20 11:33:30;;;;;;;4.60;1.50;;;;;;;-0.60;85.15;98069.09;220414;1271;23239;-74
2022/01/20 11:38:45;;;;;;;2.90;0.90;;;;;;;-0.53;84.66;98073.25;221040;1268;22575;-72
2022/01/20 11:44:29;;;;;;;4.90;1.40;;;;;;;-0.48;84.14;98076.52;220702;1268;25416;-72
2022/01/20 11:49:38;;;;;;;2.70;0.90;;;;;;;-0.43;83.75;98067.79;221003;1268;23578;-74
2022/01/20 11:54:57;;;;;;;4.90;0.90;;;;;;;-0.36;82.13;98077.57;220921;1268;22548;-72
2022/01/20 12:00:25;;;;;;;2.00;0.90;;;;;;;-0.37;80.79;98093.59;220927;1268;24268;-71
2022/01/20 12:05:36;;;;;;;3.40;1.00;;;;;;;-0.37;80.40;98089.48;220934;1268;22544;-72
2022/01/20 12:11:26;;;;;;;1.80;0.90;;;;;;;-0.40;78.91;98115.02;220618;1271;22695;-72
2022/01/20 12:17:23;;;;;;;2.20;0.70;;;;;;;-0.65;78.09;98121.20;221139;1268;22604;-72
2022/01/20 12:22:42;;;;;;;2.40;1.20;;;;;;;-0.90;77.53;98118.02;221094;1268;22557;-72
2022/01/20 12:28:28;;;;;;;2.80;0.90;;;;;;;-1.16;77.56;98120.19;221101;1268;26345;-72
2022/01/20 12:34:01;;;;;;;5.00;1.90;;;;;;;-1.31;78.66;98113.73;220407;1271;22649;-72
2022/01/20 12:39:33;;;;;;;3.90;1.60;;;;;;;-1.35;78.58;98104.75;221131;1268;22690;-71
2022/01/20 12:45:04;;;;;;;5.70;2.30;;;;;;;-1.31;78.37;98107.43;220904;1268;25656;-71
2022/01/20 12:50:30;;;;;;;6.60;1.30;;;;;;;-1.23;76.95;98115.70;220936;1268;22568;-71
2022/01/20 12:55:51;;;;;;;2.60;1.10;;;;;;;-0.92;76.32;98122.41;221230;1268;22723;-72
2022/01/20 13:01:04;;;;;;;1.80;1.10;;;;;;;-0.57;75.15;98129.46;221016;1268;22531;-71
2022/01/20 13:06:29;;;;;;;2.30;1.00;;;;;;;-0.26;72.71;98143.09;220966;1268;24121;-71
2022/01/20 13:12:07;;;;;;;2.80;0.60;;;;;;;-0.20;68.74;98163.96;221102;1268;24155;-72
2022/01/20 13:23:58;;;;;;;2.40;0.60;;;;;;;-0.35;64.24;98201.70;220909;1268;22563;-71
2022/01/20 13:29:05;;;;;;;3.10;0.60;;;;;;;-0.40;61.87;98220.27;220958;1268;22543;-72
2022/01/20 13:34:37;;;;;;;1.40;0.50;;;;;;;-0.47;60.58;98237.54;221083;1268;23831;-72
2022/01/20 13:39:55;;;;;;;3.10;0.60;;;;;;;-0.57;60.52;98238.69;220878;1271;25366;-72
2022/01/20 13:45:27;;;;;;;;;;;;;;;;;;;;;
2022/01/20 13:50:56;;;;;;;4.60;1.50;;;;;;;-0.65;62.70;98239.92;220512;1270;24327;-71
2022/01/20 13:56:07;;;;;;;2.50;1.10;;;;;;;-0.62;63.27;98236.05;221096;1268;22790;-70
2022/01/20 14:01:24;;;;;;;3.00;1.00;;;;;;;-0.64;63.23;98236.20;220940;1268;23868;-71
2022/01/20 14:07:35;;;;;;;1.20;0.70;;;;;;;-0.68;62.63;98241.22;221201;1268;22700;-72
2022/01/20 14:12:59;;;;;;;2.00;0.70;;;;;;;-0.74;61.65;98250.14;221055;1268;22538;-73
2022/01/20 14:18:18;;;;;;;3.10;0.80;;;;;;;-0.76;62.80;98267.20;220950;1268;22675;-72
2022/01/20 14:23:39;;;;;;;4.00;1.00;;;;;;;-0.74;63.43;98253.83;221035;1268;22745;-71
2022/01/20 14:28:46;;;;;;;6.00;1.40;;;;;;;-0.73;63.42;98248.82;220815;1268;25718;-72
2022/01/20 14:35:01;;;;;;;;;;;;;;;;;;;;;
2022/01/20 14:40:46;;;;;;;5.40;1.40;;;;;;;-0.77;64.10;98263.17;221042;1268;22718;-73
2022/01/20 14:46:26;;;;;;;;;;;;;;;;;;;;;
2022/01/20 14:51:29;;;;;;;7.60;1.80;;;;;;;-0.96;64.48;98264.34;220763;1271;22617;-72
2022/01/20 14:57:23;;;;;;;;;;;;;;;;;;;;;
2022/01/20 15:02:51;;;;;;;4.50;1.70;;;;;;;-1.22;66.04;98261.45;220937;1268;25364;-71
2022/01/20 15:08:17;;;;;;;6.40;1.80;;;;;;;-1.26;66.38;98270.54;220930;1271;25304;-72
2022/01/20 15:13:51;;;;;;;7.70;2.20;;;;;;;-1.30;66.89;98271.79;220923;1271;23188;-72
2022/01/20 15:19:23;;;;;;;5.00;1.60;;;;;;;-1.33;67.22;98277.34;220747;1270;24244;-72
2022/01/20 15:24:32;;;;;;;4.30;1.40;;;;;;;-1.38;67.42;98282.73;220551;1271;24272;-72
2022/01/20 15:29:44;;;;;;;5.20;1.60;;;;;;;-1.41;67.71;98280.83;220757;1271;24412;-71
2022/01/20 15:35:16;;;;;;;7.00;2.20;;;;;;;-1.48;67.84;98273.96;220636;1271;24406;-72
2022/01/20 15:40:30;;;;;;;8.00;2.30;;;;;;;-1.57;68.02;98278.77;220393;1271;24251;-71
2022/01/20 15:45:36;;;;;;;4.20;1.90;;;;;;;-1.65;68.44;98275.44;220790;1269;22565;-72
2022/01/20 15:51:07;;;;;;;7.50;1.90;;;;;;;-1.74;68.72;98279.27;221118;1271;22648;-72
2022/01/20 15:56:19;;;;;;;5.30;1.50;;;;;;;-1.82;68.92;98296.21;220637;1271;25256;-71
2022/01/20 16:01:21;;;;;;;6.70;1.90;;;;;;;-1.90;69.23;98304.81;220732;1270;22556;-72
2022/01/20 16:06:29;;;;;;;8.40;2.10;;;;;;;-1.94;69.32;98304.38;220505;1269;22547;-72
2022/01/20 16:11:46;;;;;;;7.00;1.80;;;;;;;-1.95;69.28;98301.39;220829;1271;22569;-71
2022/01/20 16:16:50;;;;;;;5.30;2.50;;;;;;;-1.98;69.78;98309.42;220660;1271;23022;-71
2022/01/20 16:21:55;;;;;;;5.20;2.00;;;;;;;-2.03;69.88;98313.23;220513;1271;22629;-73
2022/01/20 16:26:58;;;;;;;6.00;2.40;;;;;;;-2.09;69.87;98312.88;220745;1271;24241;-72
2022/01/20 16:32:09;;;;;;;7.20;2.10;;;;;;;-2.15;70.16;98322.06;220471;1271;22731;-71
2022/01/20 16:37:34;;;;;;;7.80;2.00;;;;;;;-2.22;70.36;98311.78;220678;1271;22572;-71
2022/01/20 16:42:47;;;;;;;7.40;2.80;;;;;;;-2.26;70.57;98307.39;220567;1271;24240;-71
2022/01/20 16:47:50;;;;;;;6.60;2.40;;;;;;;-2.30;70.69;98308.15;220905;1271;24225;-71
2022/01/20 16:52:54;;;;;;;8.30;2.60;;;;;;;-2.33;70.94;98311.77;220752;1271;24170;-71
2022/01/20 16:58:20;;;;;;;7.80;2.70;;;;;;;-2.35;71.10;98316.39;220651;1271;24649;-72
2022/01/20 17:04:17;;;;;;;7.40;3.10;;;;;;;-2.38;71.56;98326.31;220681;1271;25440;-69
2022/01/20 17:09:40;;;;;;;10.30;3.20;;;;;;;-2.42;71.53;98343.10;219869;1271;23051;-71
2022/01/20 17:14:45;;;;;;;6.70;2.70;;;;;;;-2.46;71.63;98349.73;220762;1271;25494;-71
2022/01/20 17:19:53;;;;;;;8.20;3.00;;;;;;;-2.47;71.86;98359.55;220467;1271;22625;-71
2022/01/20 17:24:59;;;;;;;10.30;3.10;;;;;;;-2.47;71.72;98355.33;220571;1271;22602;-72
2022/01/20 17:30:09;;;;;;;7.90;2.90;;;;;;;-2.47;71.84;98361.25;220801;1271;22677;-71
2022/01/20 17:35:21;;;;;;;8.80;3.30;;;;;;;-2.47;71.86;98352.90;221042;1271;22571;-71
2022/01/20 17:40:49;;;;;;;12.20;3.00;;;;;;;-2.43;71.87;98352.17;219788;1271;25390;-70
2022/01/20 17:45:55;;;;;;;10.20;2.60;;;;;;;-2.37;72.01;98352.74;219976;1271;22634;-71
2022/01/20 17:51:11;;;;;;;10.70;2.90;;;;;;;-2.29;71.95;98361.39;220735;1271;22674;-71
2022/01/20 17:56:36;;;;;;;8.80;2.90;;;;;;;-2.22;71.83;98360.85;220653;1271;27182;-71
2022/01/20 18:01:46;;;;;;;8.00;2.30;;;;;;;-2.15;71.58;98360.62;220787;1271;23546;-71
2022/01/20 18:06:50;;;;;;;6.90;1.90;;;;;;;-2.05;71.68;98363.32;220620;1271;26418;-71
2022/01/20 18:12:14;;;;;;;6.00;2.30;;;;;;;-1.98;71.30;98367.38;220624;1271;25256;-71
2022/01/20 18:17:40;;;;;;;7.00;2.60;;;;;;;-1.90;71.23;98368.95;220674;1271;22724;-71
2022/01/20 18:22:55;;;;;;;5.20;1.70;;;;;;;-1.83;70.86;98360.73;220548;1271;23148;-71
2022/01/20 18:28:21;;;;;;;7.00;2.40;;;;;;;-1.77;70.56;98367.00;220917;1271;22867;-71
2022/01/20 18:33:23;;;;;;;6.00;1.80;;;;;;;-1.72;70.58;98366.56;220821;1271;22576;-71
2022/01/20 18:38:25;;;;;;;5.70;2.10;;;;;;;-1.70;70.26;98367.38;220729;1271;22592;-72
2022/01/20 18:43:48;;;;;;;5.00;2.20;;;;;;;-1.72;69.90;98375.77;220405;1271;25331;-72
2022/01/20 18:49:00;;;;;;;9.30;2.80;;;;;;;-1.73;69.68;98380.06;220129;1271;22770;-70
2022/01/20 18:54:11;;;;;;;6.20;2.40;;;;;;;-1.79;69.78;98387.83;219671;1271;22704;-71
2022/01/20 18:59:20;;;;;;;7.30;2.40;;;;;;;-1.83;70.04;98386.55;220497;1271;22571;-71
2022/01/20 19:04:51;;;;;;;3.80;2.00;;;;;;;-1.87;70.02;98384.23;220883;1271;25201;-70
2022/01/20 19:09:54;;;;;;;6.50;1.90;;;;;;;-1.89;70.11;98390.42;220681;1271;22599;-71
2022/01/20 19:14:57;;;;;;;6.60;2.40;;;;;;;-1.93;70.24;98394.98;220622;1271;22581;-71
2022/01/20 19:20:10;;;;;;;10.10;2.80;;;;;;;-1.97;70.10;98399.71;220681;1271;24482;-72
2022/01/20 19:25:37;;;;;;;10.70;3.00;;;;;;;-1.99;70.42;98406.23;220675;1271;23011;-72
2022/01/20 19:31:01;;;;;;;10.00;3.20;;;;;;;-1.98;70.51;98403.48;219596;1271;25557;-71
2022/01/20 19:36:04;;;;;;;8.80;3.20;;;;;;;-1.98;70.70;98405.34;219660;1271;22751;-71
2022/01/20 19:41:12;;;;;;;9.20;3.20;;;;;;;-1.96;70.69;98405.52;219929;1271;22684;-72
2022/01/20 19:46:25;;;;;;;8.20;2.70;;;;;;;-1.99;70.86;98411.39;220654;1271;24151;-71
2022/01/20 19:51:27;;;;;;;9.60;3.10;;;;;;;-2.01;70.80;98412.31;220463;1271;22560;-72
2022/01/20 19:56:33;;;;;;;9.30;3.40;;;;;;;-2.04;71.11;98414.84;220795;1271;22566;-71
2022/01/20 20:01:42;;;;;;;10.20;3.40;;;;;;;-2.03;71.48;98424.13;219827;1271;25372;-71
2022/01/20 20:07:00;;;;;;;9.80;3.00;;;;;;;-1.98;71.68;98432.35;220825;1271;22486;-71
2022/01/20 20:12:07;;;;;;;7.90;2.30;;;;;;;-1.97;72.84;98431.86;220461;1271;22602;-72
2022/01/20 20:17:32;;;;;;;9.20;3.10;;;;;;;-2.07;73.97;98438.73;220908;1271;22539;-71
2022/01/20 20:23:20;;;;;;;4.80;1.80;;;;;;;-2.20;75.04;98451.34;220695;1271;26563;-71
2022/01/20 20:29:12;;;;;;;;;;;;;;;;;;;;;
2022/01/20 20:35:31;;;;;;;7.40;3.00;;;;;;;-2.50;76.56;98451.02;219826;1271;22548;-70
2022/01/20 20:54:39;;;;;;;8.60;3.10;;;;;;;-2.63;77.02;98467.15;220401;1271;22761;-71
2022/01/20 21:00:42;;;;;;;;;;;;;;;;;;;;;
2022/01/20 21:05:55;;;;;;;8.50;3.70;;;;;;;-2.55;77.53;98460.90;220710;1271;25624;-70
2022/01/20 21:11:02;;;;;;;7.40;3.70;;;;;;;-2.59;77.67;98456.84;220613;1271;26700;-70
2022/01/20 21:16:05;;;;;;;8.90;4.00;;;;;;;-2.64;77.72;98462.96;220704;1271;25508;-72
2022/01/20 21:21:43;;;;;;;7.00;3.40;;;;;;;-2.65;78.03;98469.50;220528;1270;25264;-72
2022/01/20 21:27:00;;;;;;;7.20;3.10;;;;;;;-2.58;78.34;98465.59;220659;1271;26706;-71
2022/01/20 21:32:07;;;;;;;7.00;2.90;;;;;;;-2.50;78.41;98470.07;220727;1271;23848;-71
2022/01/20 21:37:52;;;;;;;;;;;;;;;;;;;;;
2022/01/20 21:43:15;;;;;;;7.10;2.30;;;;;;;-2.37;78.59;98472.17;220484;1271;22785;-71
2022/01/20 21:48:31;;;;;;;7.40;2.50;;;;;;;-2.35;78.39;98472.16;220511;1271;24580;-71
2022/01/20 21:53:38;;;;;;;9.60;2.80;;;;;;;-2.34;78.41;98481.40;220772;1271;24249;-71
2022/01/20 21:58:50;;;;;;;6.40;2.90;;;;;;;-2.29;78.74;98483.02;220519;1271;24244;-70
2022/01/20 22:03:56;;;;;;;9.10;3.20;;;;;;;-2.26;78.60;98487.96;220331;1271;22575;-71
2022/01/20 22:09:12;;;;;;;9.50;3.30;;;;;;;-2.26;78.47;98492.52;220342;1271;22535;-71
2022/01/20 22:14:58;;;;;;;;;;;;;;;;;;;;;
2022/01/20 22:20:07;;;;;;;7.50;3.40;;;;;;;-2.32;78.94;98509.06;220644;1271;22600;-72
2022/01/20 22:25:09;;;;;;;5.80;2.70;;;;;;;-2.31;78.98;98516.14;220671;1271;25515;-72
2022/01/20 22:30:15;;;;;;;7.30;2.50;;;;;;;-2.33;78.77;98516.95;220468;1271;24318;-70
2022/01/20 22:35:18;;;;;;;6.00;2.10;;;;;;;-2.37;78.84;98518.02;220298;1271;24361;-71
2022/01/20 22:40:24;;;;;;;4.10;1.80;;;;;;;-2.41;78.75;98519.38;220597;1269;24368;-70
2022/01/20 22:45:37;;;;;;;8.40;2.80;;;;;;;-2.43;79.06;98520.19;220644;1271;22704;-71
2022/01/20 22:50:40;;;;;;;6.20;2.40;;;;;;;-2.48;79.07;98520.86;220527;1271;24225;-71
2022/01/20 22:55:43;;;;;;;5.10;1.90;;;;;;;-2.51;79.19;98529.68;220662;1271;24295;-71
2022/01/20 23:00:54;;;;;;;6.40;2.00;;;;;;;-2.52;79.65;98534.52;220713;1271;22553;-71
2022/01/20 23:05:56;;;;;;;7.20;2.20;;;;;;;-2.57;79.62;98532.05;220792;1271;22562;-71
2022/01/20 23:11:22;;;;;;;4.30;1.80;;;;;;;-2.62;79.94;98537.64;220732;1271;22698;-71
2022/01/20 23:22:17;;;;;;;;;;;;;;;;;;;;;
2022/01/20 23:28:04;;;;;;;7.30;2.30;;;;;;;-2.69;80.38;98545.09;220658;1271;22882;-71
2022/01/20 23:34:08;;;;;;;5.40;2.60;;;;;;;-2.67;80.40;98554.61;220510;1271;24395;-71
2022/01/20 23:39:52;;;;;;;7.50;3.20;;;;;;;-2.62;80.65;98553.05;220722;1271;24263;-70
2022/01/20 23:45:21;;;;;;;6.30;2.80;;;;;;;-2.59;80.85;98560.86;220781;1271;22630;-72
2022/01/20 23:50:25;;;;;;;5.70;2.80;;;;;;;-2.57;81.18;98567.76;220845;1271;24250;-70
2022/01/20 23:55:27;;;;;;;7.60;3.60;;;;;;;-2.56;81.32;98572.73;221047;1271;22596;-71
